createdAt,value
2018-07-06T00:01:04.307Z,20.30
2018-07-06T00:03:25.883Z,20.20
2018-07-06T00:05:47.778Z,20.20
2018-07-06T00:08:09.363Z,20.20
2018-07-06T00:10:30.959Z,20.10
2018-07-06T00:12:52.503Z,20.10
2018-07-06T00:15:13.982Z,20.00
2018-07-06T00:17:35.327Z,20.00
2018-07-06T00:19:56.795Z,20.00
2018-07-06T00:22:18.078Z,19.90
2018-07-06T00:24:39.218Z,19.90
2018-07-06T00:27:02.666Z,19.90
2018-07-06T00:29:24.679Z,19.90
2018-07-06T00:34:01.495Z,19.80
2018-07-06T00:36:23.152Z,19.70
2018-07-06T00:38:45.182Z,19.70
2018-07-06T00:41:06.667Z,19.70
2018-07-06T00:43:27.974Z,19.60
2018-07-06T00:45:49.549Z,19.60
2018-07-06T00:50:28.121Z,19.50
2018-07-06T00:52:49.737Z,19.50
2018-07-06T00:55:11.112Z,19.50
2018-07-06T00:57:32.514Z,19.40
2018-07-06T00:59:53.942Z,19.40
2018-07-06T01:02:17.453Z,19.30
2018-07-06T01:04:40.115Z,19.30
2018-07-06T01:07:04.302Z,19.30
2018-07-06T01:09:26.873Z,19.20
2018-07-06T01:11:48.891Z,19.20
2018-07-06T01:14:10.581Z,19.10
2018-07-06T01:16:31.963Z,19.10
2018-07-06T01:18:53.226Z,19.10
2018-07-06T01:21:14.667Z,19.10
2018-07-06T01:23:36.114Z,19.00
2018-07-06T01:25:57.648Z,19.00
2018-07-06T01:28:19.169Z,19.00
2018-07-06T01:30:40.464Z,18.90
2018-07-06T01:33:01.981Z,18.90
2018-07-06T01:35:23.451Z,18.90
2018-07-06T01:37:45.070Z,18.90
2018-07-06T01:40:06.443Z,18.80
2018-07-06T01:42:27.894Z,18.80
2018-07-06T01:44:49.402Z,18.80
2018-07-06T01:47:10.879Z,18.80
2018-07-06T01:49:32.139Z,18.70
2018-07-06T01:51:53.506Z,18.70
2018-07-06T01:54:15.189Z,18.70
2018-07-06T01:56:36.215Z,18.60
2018-07-06T01:58:57.458Z,18.60
2018-07-06T02:01:18.900Z,18.60
2018-07-06T02:03:41.485Z,18.60
2018-07-06T02:06:04.109Z,18.50
2018-07-06T02:08:26.965Z,18.50
2018-07-06T02:10:49.374Z,18.40
2018-07-06T02:13:13.081Z,18.40
2018-07-06T02:15:34.706Z,18.40
2018-07-06T02:17:57.694Z,18.30
2018-07-06T02:20:19.338Z,18.30
2018-07-06T02:22:40.787Z,18.30
2018-07-06T02:25:02.239Z,18.20
2018-07-06T02:27:23.543Z,18.20
2018-07-06T02:29:45.582Z,18.20
2018-07-06T02:32:07.007Z,18.10
2018-07-06T02:34:28.277Z,18.10
2018-07-06T02:36:49.784Z,18.10
2018-07-06T02:39:11.365Z,18.10
2018-07-06T02:41:32.859Z,18.10
2018-07-06T02:43:55.086Z,18.00
2018-07-06T02:46:16.449Z,18.00
2018-07-06T02:48:37.909Z,18.00
2018-07-06T02:50:59.269Z,18.00
2018-07-06T02:53:20.663Z,17.90
2018-07-06T02:55:43.574Z,17.90
2018-07-06T03:00:20.695Z,17.80
2018-07-06T03:02:42.030Z,17.80
2018-07-06T03:05:03.618Z,17.80
2018-07-06T03:07:26.117Z,17.80
2018-07-06T03:09:47.708Z,17.80
2018-07-06T03:12:11.230Z,17.80
2018-07-06T03:14:33.090Z,17.70
2018-07-06T03:16:55.172Z,17.70
2018-07-06T03:19:19.240Z,17.70
2018-07-06T03:21:40.658Z,17.70
2018-07-06T03:24:02.364Z,17.70
2018-07-06T03:26:24.721Z,17.70
2018-07-06T03:28:46.673Z,17.70
2018-07-06T03:31:07.943Z,17.70
2018-07-06T03:33:29.418Z,17.70
2018-07-06T03:35:52.902Z,17.70
2018-07-06T03:38:16.589Z,17.70
2018-07-06T03:40:38.283Z,17.70
2018-07-06T03:43:00.872Z,17.70
2018-07-06T03:45:23.771Z,17.70
2018-07-06T03:47:48.341Z,17.70
2018-07-06T03:50:09.918Z,17.70
2018-07-06T03:52:33.381Z,17.70
2018-07-06T03:54:58.495Z,17.70
2018-07-06T03:57:21.494Z,17.70
2018-07-06T03:59:45.776Z,17.70
2018-07-06T04:02:08.278Z,17.70
2018-07-06T04:09:03.465Z,17.70
2018-07-06T04:11:26.945Z,17.60
2018-07-06T04:13:50.007Z,17.70
2018-07-06T04:16:12.769Z,17.60
2018-07-06T04:18:35.469Z,17.60
2018-07-06T04:20:57.720Z,17.60
2018-07-06T04:23:18.817Z,17.60
2018-07-06T04:25:40.129Z,17.60
2018-07-06T04:28:01.609Z,17.60
2018-07-06T04:30:23.117Z,17.60
2018-07-06T04:35:00.013Z,17.60
2018-07-06T04:37:21.411Z,17.60
2018-07-06T04:39:42.845Z,17.60
2018-07-06T04:42:04.260Z,17.70
2018-07-06T04:44:26.826Z,17.70
2018-07-06T04:46:48.294Z,17.70
2018-07-06T04:51:25.161Z,17.70
2018-07-06T04:53:46.906Z,17.70
2018-07-06T04:56:08.235Z,17.70
2018-07-06T04:58:29.618Z,17.80
2018-07-06T05:00:50.942Z,17.80
2018-07-06T05:03:12.315Z,17.80
2018-07-06T05:05:33.679Z,17.80
2018-07-06T05:07:54.995Z,17.80
2018-07-06T05:10:16.259Z,17.90
2018-07-06T05:12:37.695Z,17.90
2018-07-06T05:14:58.804Z,17.90
2018-07-06T05:17:20.331Z,17.90
2018-07-06T05:19:41.715Z,18.00
2018-07-06T05:22:02.766Z,18.00
2018-07-06T05:24:24.221Z,18.00
2018-07-06T05:26:45.606Z,18.00
2018-07-06T05:29:07.023Z,18.10
2018-07-06T05:31:28.345Z,18.10
2018-07-06T05:33:49.816Z,18.20
2018-07-06T05:36:11.222Z,18.20
2018-07-06T05:38:32.626Z,18.20
2018-07-06T05:40:53.881Z,18.30
2018-07-06T05:43:15.477Z,18.30
2018-07-06T05:45:36.812Z,18.40
2018-07-06T05:47:58.244Z,18.40
2018-07-06T05:50:19.648Z,18.40
2018-07-06T05:52:41.028Z,18.50
2018-07-06T05:55:02.142Z,18.50
2018-07-06T05:57:23.654Z,18.60
2018-07-06T05:59:45.047Z,18.60
2018-07-06T06:02:07.505Z,18.60
2018-07-06T06:04:29.036Z,18.70
2018-07-06T06:06:50.561Z,18.70
2018-07-06T06:10:58.193Z,18.80
2018-07-06T06:13:02.642Z,18.80
2018-07-06T06:15:07.200Z,18.80
2018-07-06T06:17:11.965Z,18.90
2018-07-06T06:19:16.384Z,18.90
2018-07-06T06:21:20.929Z,19.00
2018-07-06T06:23:26.342Z,19.00
2018-07-06T06:25:30.960Z,19.10
2018-07-06T06:27:37.687Z,19.10
2018-07-06T06:29:46.842Z,19.10
2018-07-06T06:31:51.503Z,19.20
2018-07-06T06:33:57.529Z,19.20
2018-07-06T06:36:02.126Z,19.20
2018-07-06T06:38:06.666Z,19.30
2018-07-06T06:40:11.109Z,19.40
2018-07-06T06:42:15.605Z,19.40
2018-07-06T06:44:20.202Z,19.40
2018-07-06T06:46:25.747Z,19.50
2018-07-06T06:48:31.083Z,19.60
2018-07-06T06:50:35.640Z,19.60
2018-07-06T06:52:40.199Z,19.60
2018-07-06T06:54:44.706Z,19.60
2018-07-06T06:56:54.621Z,19.70
2018-07-06T06:59:02.540Z,19.70
2018-07-06T07:01:09.195Z,19.70
2018-07-06T07:03:17.705Z,19.80
2018-07-06T07:05:25.933Z,19.90
2018-07-06T07:07:36.521Z,19.90
2018-07-06T07:11:45.243Z,20.00
2018-07-06T07:13:50.383Z,20.00
2018-07-06T07:15:54.888Z,20.10
2018-07-06T07:17:59.463Z,20.10
2018-07-06T07:20:03.922Z,20.10
2018-07-06T07:22:08.462Z,20.20
2018-07-06T07:24:13.018Z,20.20
2018-07-06T07:26:18.940Z,20.20
2018-07-06T07:28:26.293Z,20.30
2018-07-06T07:30:34.886Z,20.30
2018-07-06T07:32:41.550Z,20.30
2018-07-06T07:34:51.985Z,20.40
2018-07-06T07:36:59.530Z,20.40
2018-07-06T07:39:05.089Z,20.40
2018-07-06T07:41:09.631Z,20.50
2018-07-06T07:43:14.181Z,20.50
2018-07-06T07:45:18.735Z,20.50
2018-07-06T07:47:23.259Z,20.50
2018-07-06T07:49:27.669Z,20.60
2018-07-06T07:52:15.666Z,20.60
2018-07-06T07:54:40.460Z,20.60
2018-07-06T07:56:46.877Z,20.60
2018-07-06T07:58:54.620Z,20.60
2018-07-06T08:01:01.345Z,20.60
2018-07-06T08:03:09.162Z,20.60
2018-07-06T08:05:13.706Z,20.60
2018-07-06T08:07:18.789Z,20.60
2018-07-06T08:09:24.365Z,20.70
2018-07-06T08:11:28.886Z,20.60
2018-07-06T08:13:33.511Z,20.60
2018-07-06T08:15:38.080Z,20.70
2018-07-06T08:17:42.518Z,20.70
2018-07-06T08:19:46.997Z,20.70
2018-07-06T08:21:52.427Z,20.70
2018-07-06T08:23:56.964Z,20.70
2018-07-06T08:26:01.578Z,20.70
2018-07-06T08:28:06.309Z,20.70
2018-07-06T08:30:10.833Z,20.70
2018-07-06T08:32:15.367Z,20.80
2018-07-06T08:34:36.842Z,20.80
2018-07-06T08:37:57.250Z,20.80
2018-07-06T08:40:01.838Z,20.80
2018-07-06T08:42:06.311Z,20.80
2018-07-06T08:44:10.928Z,20.90
2018-07-06T08:46:15.439Z,20.90
2018-07-06T08:48:19.954Z,20.90
2018-07-06T08:50:24.469Z,20.90
2018-07-06T08:52:29.073Z,20.90
2018-07-06T08:56:39.270Z,21.00
2018-07-06T08:58:43.919Z,21.10
2018-07-06T09:00:48.231Z,21.10
2018-07-06T09:02:55.688Z,21.20
2018-07-06T09:05:03.345Z,21.20
2018-07-06T09:07:11.043Z,21.20
2018-07-06T09:09:19.255Z,21.30
2018-07-06T09:11:26.590Z,21.40
2018-07-06T09:13:31.322Z,21.40
2018-07-06T09:15:35.855Z,21.50
2018-07-06T09:17:42.976Z,21.50
2018-07-06T09:19:48.326Z,21.50
2018-07-06T09:21:52.643Z,21.60
2018-07-06T09:23:57.145Z,21.60
2018-07-06T09:26:02.037Z,21.70
2018-07-06T09:28:06.179Z,21.70
2018-07-06T09:30:10.632Z,21.80
2018-07-06T09:32:15.087Z,21.80
2018-07-06T09:34:19.547Z,21.90
2018-07-06T09:36:24.572Z,21.90
2018-07-06T09:38:29.065Z,22.00
2018-07-06T09:40:33.540Z,22.00
2018-07-06T09:42:38.020Z,22.10
2018-07-06T09:44:42.486Z,22.10
2018-07-06T09:46:46.942Z,22.20
2018-07-06T09:48:51.457Z,22.20
2018-07-06T09:50:56.729Z,22.30
2018-07-06T09:53:01.840Z,22.40
2018-07-06T09:55:06.455Z,22.50
2018-07-06T09:57:10.926Z,22.50
2018-07-06T09:59:15.384Z,22.60
2018-07-06T10:01:19.925Z,22.70
2018-07-06T10:03:24.817Z,22.70
2018-07-06T10:05:29.374Z,22.80
2018-07-06T10:07:33.831Z,22.90
2018-07-06T10:09:38.545Z,22.90
2018-07-06T10:13:48.314Z,23.20
2018-07-06T10:17:56.895Z,23.40
2018-07-06T10:20:01.428Z,23.40
2018-07-06T10:22:06.427Z,23.50
2018-07-06T10:24:15.203Z,23.60
2018-07-06T10:26:21.930Z,23.70
2018-07-06T10:30:49.676Z,23.80
2018-07-06T10:32:54.222Z,23.90
2018-07-06T10:34:59.395Z,24.10
2018-07-06T10:37:05.165Z,24.20
2018-07-06T10:39:11.835Z,24.30
2018-07-06T10:41:16.347Z,24.40
2018-07-06T10:43:20.781Z,24.50
2018-07-06T10:45:25.262Z,24.60
2018-07-06T10:49:33.954Z,24.90
2018-07-06T10:51:38.412Z,25.00
2018-07-06T10:53:43.415Z,25.10
2018-07-06T10:55:48.685Z,25.30
2018-07-06T10:57:53.176Z,25.40
2018-07-06T10:59:57.662Z,25.50
2018-07-06T11:02:02.250Z,25.70
2018-07-06T11:04:07.012Z,25.70
2018-07-06T11:06:12.389Z,25.80
2018-07-06T11:08:18.367Z,25.90
2018-07-06T11:10:23.015Z,25.90
2018-07-06T11:12:27.506Z,26.00
2018-07-06T11:14:32.073Z,26.10
2018-07-06T11:16:36.587Z,26.20
2018-07-06T11:18:41.038Z,26.30
2018-07-06T11:20:46.313Z,26.30
2018-07-06T11:24:56.638Z,26.50
2018-07-06T11:27:01.186Z,26.60
2018-07-06T11:29:06.588Z,26.70
2018-07-06T11:31:11.102Z,26.70
2018-07-06T11:33:16.523Z,26.80
2018-07-06T11:35:22.226Z,26.90
2018-07-06T11:37:30.343Z,26.90
2018-07-06T11:39:35.215Z,27.00
2018-07-06T11:41:40.312Z,27.10
2018-07-06T11:43:45.359Z,27.10
2018-07-06T11:45:49.882Z,27.20
2018-07-06T11:47:54.520Z,27.20
2018-07-06T11:50:00.051Z,27.30
2018-07-06T11:52:05.196Z,27.40
2018-07-06T11:54:10.134Z,27.50
2018-07-06T11:56:14.938Z,27.50
2018-07-06T11:58:19.972Z,27.60
2018-07-06T12:00:24.454Z,27.70
2018-07-06T12:04:33.516Z,27.90
2018-07-06T12:06:37.908Z,27.90
2018-07-06T12:08:42.363Z,28.00
2018-07-06T12:10:46.991Z,28.10
2018-07-06T12:12:51.673Z,28.10
2018-07-06T12:14:56.109Z,28.20
2018-07-06T12:17:02.144Z,28.20
2018-07-06T12:19:06.698Z,28.30
2018-07-06T12:21:11.758Z,28.30
2018-07-06T12:23:16.497Z,28.30
2018-07-06T12:25:21.874Z,28.40
2018-07-06T12:27:26.821Z,28.40
2018-07-06T12:29:31.266Z,28.50
2018-07-06T12:31:35.842Z,28.60
2018-07-06T12:33:40.412Z,28.70
2018-07-06T12:35:45.685Z,28.80
2018-07-06T12:37:51.332Z,28.80
2018-07-06T12:39:56.226Z,28.80
2018-07-06T12:42:01.030Z,28.90
2018-07-06T12:44:06.847Z,29.00
2018-07-06T12:46:11.617Z,29.00
2018-07-06T12:48:16.291Z,29.00
2018-07-06T12:50:20.728Z,29.10
2018-07-06T12:54:42.322Z,29.10
2018-07-06T12:56:47.726Z,29.10
2018-07-06T12:58:53.580Z,29.20
2018-07-06T13:00:58.225Z,29.20
2018-07-06T13:03:02.658Z,29.20
2018-07-06T13:05:07.747Z,29.30
2018-07-06T13:07:12.211Z,29.30
2018-07-06T13:09:16.641Z,29.40
2018-07-06T13:11:21.126Z,29.40
2018-07-06T13:13:25.562Z,29.50
2018-07-06T13:15:30.394Z,29.50
2018-07-06T13:17:38.095Z,29.50
2018-07-06T13:19:46.805Z,29.60
2018-07-06T13:21:52.431Z,29.60
2018-07-06T13:23:56.870Z,29.70
2018-07-06T13:26:01.435Z,29.70
2018-07-06T13:28:06.385Z,29.70
2018-07-06T13:30:10.852Z,29.80
2018-07-06T13:32:15.637Z,29.90
2018-07-06T13:34:20.255Z,29.90
2018-07-06T13:36:24.742Z,30.00
2018-07-06T13:38:30.471Z,30.00
2018-07-06T13:40:35.454Z,30.10
2018-07-06T13:42:40.533Z,30.20
2018-07-06T13:46:49.400Z,30.20
2018-07-06T13:48:54.394Z,30.30
2018-07-06T13:50:59.008Z,30.30
2018-07-06T13:53:04.760Z,30.30
2018-07-06T13:55:09.750Z,30.30
2018-07-06T13:57:14.282Z,30.30
2018-07-06T13:59:19.373Z,30.30
2018-07-06T14:01:23.911Z,30.30
2018-07-06T14:03:28.957Z,30.30
2018-07-06T14:05:34.458Z,30.30
2018-07-06T14:07:38.923Z,30.30
2018-07-06T14:09:43.548Z,30.30
2018-07-06T14:11:48.856Z,30.30
2018-07-06T14:13:53.736Z,30.30
2018-07-06T14:15:58.329Z,30.30
2018-07-06T14:18:03.142Z,30.30
2018-07-06T14:20:07.722Z,30.30
2018-07-06T14:22:12.236Z,30.30
2018-07-06T14:24:16.866Z,30.30
2018-07-06T14:26:21.859Z,30.20
2018-07-06T14:28:26.788Z,30.20
2018-07-06T14:30:31.290Z,30.20
2018-07-06T14:32:35.803Z,30.20
2018-07-06T14:34:41.504Z,30.10
2018-07-06T14:36:45.993Z,30.10
2018-07-06T14:38:50.540Z,30.10
2018-07-06T14:40:55.025Z,30.10
2018-07-06T14:43:00.014Z,30.10
2018-07-06T14:45:07.318Z,30.10
2018-07-06T14:47:11.863Z,30.10
2018-07-06T14:49:16.897Z,30.10
2018-07-06T14:51:21.367Z,30.10
2018-07-06T14:53:27.067Z,30.10
2018-07-06T14:55:31.552Z,30.10
2018-07-06T14:57:36.350Z,30.10
2018-07-06T15:01:45.302Z,30.10
2018-07-06T15:03:49.814Z,30.10
2018-07-06T15:05:54.358Z,30.20
2018-07-06T15:07:58.820Z,30.20
2018-07-06T15:10:03.266Z,30.20
2018-07-06T15:12:07.714Z,30.20
2018-07-06T15:14:12.450Z,30.20
2018-07-06T15:16:16.965Z,30.20
2018-07-06T15:18:22.275Z,30.20
2018-07-06T15:20:28.929Z,30.20
2018-07-06T15:22:34.313Z,30.30
2018-07-06T15:24:39.685Z,30.30
2018-07-06T15:26:44.339Z,30.30
2018-07-06T15:28:49.031Z,30.40
2018-07-06T15:30:54.448Z,30.40
2018-07-06T15:32:59.491Z,30.40
2018-07-06T15:35:04.994Z,30.40
2018-07-06T15:37:09.553Z,30.40
2018-07-06T15:39:14.371Z,30.40
2018-07-06T15:41:19.090Z,30.40
2018-07-06T15:43:24.130Z,30.40
2018-07-06T15:45:28.739Z,30.40
2018-07-06T15:47:33.374Z,30.40
2018-07-06T15:49:38.069Z,30.40
2018-07-06T15:51:42.705Z,30.30
2018-07-06T15:53:48.492Z,30.30
2018-07-06T15:55:53.278Z,30.30
2018-07-06T15:57:59.175Z,30.20
2018-07-06T16:00:04.213Z,30.20
2018-07-06T16:02:09.558Z,30.20
2018-07-06T16:04:14.913Z,30.20
2018-07-06T16:06:19.816Z,30.20
2018-07-06T16:08:24.311Z,30.20
2018-07-06T16:10:28.840Z,30.20
2018-07-06T16:14:37.587Z,30.30
2018-07-06T16:16:42.055Z,30.30
2018-07-06T16:18:46.551Z,30.30
2018-07-06T16:20:51.399Z,30.30
2018-07-06T16:22:55.880Z,30.30
2018-07-06T16:25:00.406Z,30.30
2018-07-06T16:27:07.187Z,30.30
2018-07-06T16:29:11.883Z,30.30
2018-07-06T16:31:16.444Z,30.30
2018-07-06T16:33:21.238Z,30.20
2018-07-06T16:35:25.786Z,30.20
2018-07-06T16:37:30.493Z,30.10
2018-07-06T16:39:35.157Z,30.10
2018-07-06T16:41:39.950Z,30.10
2018-07-06T16:43:44.435Z,30.00
2018-07-06T16:45:48.897Z,29.90
2018-07-06T16:47:54.538Z,29.90
2018-07-06T16:49:59.043Z,29.80
2018-07-06T16:52:04.295Z,29.80
2018-07-06T16:54:09.797Z,29.70
2018-07-06T16:56:14.883Z,29.70
2018-07-06T16:58:19.305Z,29.60
2018-07-06T17:00:23.982Z,29.60
2018-07-06T17:02:30.147Z,29.50
2018-07-06T17:04:35.015Z,29.40
2018-07-06T17:06:39.851Z,29.30
2018-07-06T17:08:44.554Z,29.30
2018-07-06T17:10:49.063Z,29.30
2018-07-06T17:12:53.518Z,29.20
2018-07-06T17:14:57.983Z,29.20
2018-07-06T17:17:02.438Z,29.20
2018-07-06T17:19:06.990Z,29.10
2018-07-06T17:21:11.426Z,29.10
2018-07-06T17:23:16.201Z,29.00
2018-07-06T17:27:25.533Z,28.90
2018-07-06T17:29:30.531Z,28.90
2018-07-06T17:31:35.072Z,28.80
2018-07-06T17:33:40.890Z,28.80
2018-07-06T17:35:45.396Z,28.70
2018-07-06T17:37:49.907Z,28.60
2018-07-06T17:39:55.119Z,28.60
2018-07-06T17:42:00.738Z,28.50
2018-07-06T17:44:05.261Z,28.40
2018-07-06T17:46:09.882Z,28.40
2018-07-06T17:48:14.424Z,28.40
2018-07-06T17:50:18.979Z,28.30
2018-07-06T17:52:23.534Z,28.30
2018-07-06T17:54:28.019Z,28.20
2018-07-06T17:56:32.704Z,28.20
2018-07-06T17:58:37.267Z,28.10
2018-07-06T18:00:41.797Z,28.10
2018-07-06T18:02:46.269Z,28.00
2018-07-06T18:04:51.017Z,28.00
2018-07-06T18:06:55.679Z,27.90
2018-07-06T18:09:00.983Z,27.90
2018-07-06T18:11:05.977Z,27.80
2018-07-06T18:13:10.645Z,27.90
2018-07-06T18:15:16.272Z,27.80
2018-07-06T18:17:20.906Z,27.80
2018-07-06T18:19:28.202Z,27.80
2018-07-06T18:21:32.914Z,27.70
2018-07-06T18:23:37.678Z,27.70
2018-07-06T18:25:43.084Z,27.70
2018-07-06T18:27:48.699Z,27.70
2018-07-06T18:29:53.656Z,27.60
2018-07-06T18:31:58.357Z,27.60
2018-07-06T18:34:03.285Z,27.60
2018-07-06T18:36:07.926Z,27.50
2018-07-06T18:38:12.459Z,27.50
2018-07-06T18:40:17.374Z,27.50
2018-07-06T18:42:21.821Z,27.40
2018-07-06T18:44:26.377Z,27.40
2018-07-06T18:46:30.857Z,27.30
2018-07-06T18:48:35.459Z,27.30
2018-07-06T18:50:41.095Z,27.20
2018-07-06T18:52:45.828Z,27.20
2018-07-06T18:54:50.475Z,27.10
2018-07-06T18:56:58.892Z,27.10
2018-07-06T18:59:07.542Z,27.10
2018-07-06T19:01:14.613Z,27.00
2018-07-06T19:03:22.268Z,27.00
2018-07-06T19:05:29.061Z,26.90
2018-07-06T19:07:34.638Z,26.90
2018-07-06T19:09:40.263Z,26.80
2018-07-06T19:11:46.146Z,26.80
2018-07-06T19:13:52.830Z,26.70
2018-07-06T19:15:58.497Z,26.60
2018-07-06T19:18:05.195Z,26.60
2018-07-06T19:20:12.335Z,26.60
2018-07-06T19:22:17.073Z,26.50
2018-07-06T19:24:22.077Z,26.40
2018-07-06T19:26:28.905Z,26.40
2018-07-06T19:28:36.446Z,26.30
2018-07-06T19:30:44.214Z,26.20
2018-07-06T19:32:48.809Z,26.10
2018-07-06T19:34:53.246Z,26.00
2018-07-06T19:36:57.774Z,26.00
2018-07-06T19:39:02.338Z,25.90
2018-07-06T19:41:06.850Z,25.80
2018-07-06T19:43:11.666Z,25.70
2018-07-06T19:45:25.121Z,25.70
2018-07-06T19:47:29.858Z,25.50
2018-07-06T19:49:34.270Z,25.50
2018-07-06T19:51:39.106Z,25.40
2018-07-06T19:53:44.939Z,25.30
2018-07-06T19:55:49.434Z,25.30
2018-07-06T19:57:54.235Z,25.20
2018-07-06T19:59:58.658Z,25.10
2018-07-06T20:02:03.455Z,25.00
2018-07-06T20:04:08.273Z,24.90
2018-07-06T20:06:13.690Z,24.90
2018-07-06T20:08:18.454Z,24.70
2018-07-06T20:10:23.558Z,24.70
2018-07-06T20:12:28.356Z,24.60
2018-07-06T20:16:37.166Z,24.50
2018-07-06T20:18:41.932Z,24.40
2018-07-06T20:20:46.921Z,24.30
2018-07-06T20:22:51.614Z,24.20
2018-07-06T20:24:56.086Z,24.20
2018-07-06T20:27:00.665Z,24.10
2018-07-06T20:31:09.509Z,24.10
2018-07-06T20:33:14.409Z,24.00
2018-07-06T20:35:18.926Z,23.90
2018-07-06T20:37:23.394Z,23.90
2018-07-06T20:39:27.979Z,23.80
2018-07-06T20:41:32.998Z,23.80
2018-07-06T20:43:37.879Z,23.70
2018-07-06T20:45:42.758Z,23.70
2018-07-06T20:47:47.760Z,23.60
2018-07-06T20:49:52.464Z,23.60
2018-07-06T20:51:57.890Z,23.50
2018-07-06T20:54:02.472Z,23.50
2018-07-06T20:56:07.346Z,23.40
2018-07-06T20:58:12.596Z,23.30
2018-07-06T21:00:17.378Z,23.30
2018-07-06T21:02:21.877Z,23.20
2018-07-06T21:04:26.867Z,23.20
2018-07-06T21:06:31.533Z,23.10
2018-07-06T21:08:36.482Z,23.10
2018-07-06T21:10:41.449Z,23.00
2018-07-06T21:12:47.287Z,23.00
2018-07-06T21:14:51.958Z,22.90
2018-07-06T21:16:56.999Z,22.80
2018-07-06T21:19:01.775Z,22.80
2018-07-06T21:21:06.526Z,22.70
2018-07-06T21:23:11.147Z,22.60
2018-07-06T21:25:15.654Z,22.60
2018-07-06T21:29:25.989Z,22.50
2018-07-06T21:31:30.538Z,22.40
2018-07-06T21:33:34.983Z,22.40
2018-07-06T21:35:39.508Z,22.40
2018-07-06T21:37:44.613Z,22.30
2018-07-06T21:39:49.019Z,22.20
2018-07-06T21:41:53.495Z,22.20
2018-07-06T21:43:58.023Z,22.10
2018-07-06T21:46:02.485Z,22.10
2018-07-06T21:48:10.905Z,22.00
2018-07-06T21:52:21.994Z,21.90
2018-07-06T21:54:30.602Z,21.90
2018-07-06T21:56:38.160Z,21.80
2018-07-06T21:58:45.030Z,21.80
2018-07-06T22:00:49.673Z,21.70
2018-07-06T22:02:55.522Z,21.70
2018-07-06T22:05:00.850Z,21.60
2018-07-06T22:07:05.370Z,21.60
2018-07-06T22:09:11.447Z,21.50
2018-07-06T22:11:18.078Z,21.50
2018-07-06T22:13:22.598Z,21.50
2018-07-06T22:15:34.038Z,21.40
2018-07-06T22:17:40.279Z,21.40
2018-07-06T22:19:45.146Z,21.30
2018-07-06T22:21:49.581Z,21.30
2018-07-06T22:23:54.064Z,21.20
2018-07-06T22:25:58.522Z,21.20
2018-07-06T22:28:03.040Z,21.20
2018-07-06T22:32:11.674Z,21.10
2018-07-06T22:34:16.585Z,21.10
2018-07-06T22:36:21.001Z,21.00
2018-07-06T22:38:25.567Z,21.00
2018-07-06T22:40:30.082Z,21.00
2018-07-06T22:42:34.535Z,20.90
2018-07-06T22:44:39.166Z,20.90
2018-07-06T22:46:43.599Z,20.90
2018-07-06T22:48:48.064Z,20.80
2018-07-06T22:50:52.501Z,20.80
2018-07-06T22:52:56.975Z,20.80
2018-07-06T22:55:01.501Z,20.70
2018-07-06T22:57:07.093Z,20.70
2018-07-06T22:59:11.539Z,20.70
2018-07-06T23:03:20.142Z,20.60
2018-07-06T23:05:24.673Z,20.60
2018-07-06T23:07:29.114Z,20.50
2018-07-06T23:09:33.559Z,20.50
2018-07-06T23:11:37.998Z,20.50
2018-07-06T23:13:42.494Z,20.40
2018-07-06T23:15:47.464Z,20.40
2018-07-06T23:17:51.958Z,20.40
2018-07-06T23:19:56.406Z,20.30
2018-07-06T23:22:01.062Z,20.30
2018-07-06T23:24:05.575Z,20.20
2018-07-06T23:26:10.030Z,20.20
2018-07-06T23:28:14.614Z,20.10
2018-07-06T23:30:19.083Z,20.10
2018-07-06T23:32:23.518Z,20.10
2018-07-06T23:34:28.035Z,20.00
2018-07-06T23:36:32.482Z,20.00
2018-07-06T23:38:36.904Z,20.00
2018-07-06T23:40:41.429Z,19.90
2018-07-06T23:42:45.861Z,19.90
2018-07-06T23:44:50.339Z,19.80
2018-07-06T23:46:54.831Z,19.80
2018-07-06T23:48:59.430Z,19.70
2018-07-06T23:51:03.870Z,19.70
2018-07-06T23:53:08.333Z,19.70
2018-07-06T23:55:13.261Z,19.60
2018-07-06T23:57:17.758Z,19.60
2018-07-06T23:59:22.198Z,19.50
